sensor_id;sensor_type;location;lat;lon;timestamp;pressure;altitude;pressure_sealevel;temperature;humidity
34177;BME280;20450;49.074;9.158;2022-09-03T00:01:33;99119.13;;;19.31;54.78
34177;BME280;20450;49.074;9.158;2022-09-03T00:04:09;99113.34;;;19.27;56.88
34177;BME280;20450;49.074;9.158;2022-09-03T00:06:54;99103.97;;;19.25;57.92
34177;BME280;20450;49.074;9.158;2022-09-03T00:09:30;99102.00;;;19.27;55.94
34177;BME280;20450;49.074;9.158;2022-09-03T00:12:08;99093.97;;;19.35;57.04
34177;BME280;20450;49.074;9.158;2022-09-03T00:14:40;99098.47;;;19.34;57.57
34177;BME280;20450;49.074;9.158;2022-09-03T00:17:15;99100.91;;;19.36;57.12
34177;BME280;20450;49.074;9.158;2022-09-03T00:19:52;99102.72;;;19.35;56.19
34177;BME280;20450;49.074;9.158;2022-09-03T00:22:24;99097.63;;;19.34;56.53
34177;BME280;20450;49.074;9.158;2022-09-03T00:24:57;99103.75;;;19.34;58.26
34177;BME280;20450;49.074;9.158;2022-09-03T00:27:28;99101.28;;;19.33;57.58
34177;BME280;20450;49.074;9.158;2022-09-03T00:30:05;99099.63;;;19.32;58.56
34177;BME280;20450;49.074;9.158;2022-09-03T00:32:42;99099.63;;;19.32;58.12
34177;BME280;20450;49.074;9.158;2022-09-03T00:35:21;99102.91;;;19.34;58.32
34177;BME280;20450;49.074;9.158;2022-09-03T00:37:51;99102.28;;;19.32;57.31
34177;BME280;20450;49.074;9.158;2022-09-03T00:40:31;99112.63;;;19.33;57.08
34177;BME280;20450;49.074;9.158;2022-09-03T00:43:25;99098.56;;;19.18;58.74
34177;BME280;20450;49.074;9.158;2022-09-03T00:46:14;99107.34;;;19.33;61.36
34177;BME280;20450;49.074;9.158;2022-09-03T00:49:04;99098.63;;;19.47;59.46
34177;BME280;20450;49.074;9.158;2022-09-03T00:51:50;99099.94;;;19.51;59.27
34177;BME280;20450;49.074;9.158;2022-09-03T00:54:33;99109.84;;;19.49;58.03
34177;BME280;20450;49.074;9.158;2022-09-03T00:57:18;99112.56;;;19.41;57.11
34177;BME280;20450;49.074;9.158;2022-09-03T01:00:03;99121.94;;;19.29;57.50
34177;BME280;20450;49.074;9.158;2022-09-03T01:02:41;99104.66;;;19.19;58.23
34177;BME280;20450;49.074;9.158;2022-09-03T01:05:30;99103.41;;;19.15;58.05
34177;BME280;20450;49.074;9.158;2022-09-03T01:08:34;99098.47;;;19.12;59.11
34177;BME280;20450;49.074;9.158;2022-09-03T01:11:23;99089.63;;;19.05;57.83
34177;BME280;20450;49.074;9.158;2022-09-03T01:14:08;99088.03;;;18.96;59.75
34177;BME280;20450;49.074;9.158;2022-09-03T01:16:48;99095.63;;;18.99;60.03
34177;BME280;20450;49.074;9.158;2022-09-03T01:19:37;99105.53;;;18.97;58.94
34177;BME280;20450;49.074;9.158;2022-09-03T01:25:51;99107.06;;;18.91;57.91
34177;BME280;20450;49.074;9.158;2022-09-03T01:28:40;99103.97;;;18.88;58.14
34177;BME280;20450;49.074;9.158;2022-09-03T01:31:24;99104.97;;;18.87;59.34
34177;BME280;20450;49.074;9.158;2022-09-03T01:34:09;99101.66;;;18.85;59.46
34177;BME280;20450;49.074;9.158;2022-09-03T01:36:54;99105.47;;;18.82;59.21
34177;BME280;20450;49.074;9.158;2022-09-03T01:39:40;99106.94;;;18.85;58.65
34177;BME280;20450;49.074;9.158;2022-09-03T01:42:20;99106.94;;;18.85;59.62
34177;BME280;20450;49.074;9.158;2022-09-03T01:48:39;99104.63;;;18.67;59.45
34177;BME280;20450;49.074;9.158;2022-09-03T01:51:18;99102.72;;;18.53;60.38
34177;BME280;20450;49.074;9.158;2022-09-03T01:54:19;99103.88;;;18.51;59.86
34177;BME280;20450;49.074;9.158;2022-09-03T01:57:16;99105.88;;;18.49;60.34
34177;BME280;20450;49.074;9.158;2022-09-03T02:00:06;99111.63;;;18.52;61.79
34177;BME280;20450;49.074;9.158;2022-09-03T02:02:40;99124.03;;;18.52;59.92
34177;BME280;20450;49.074;9.158;2022-09-03T02:05:11;99122.03;;;18.54;59.34
34177;BME280;20450;49.074;9.158;2022-09-03T02:07:42;99122.03;;;18.54;59.21
34177;BME280;20450;49.074;9.158;2022-09-03T02:10:13;99119.25;;;18.47;59.73
34177;BME280;20450;49.074;9.158;2022-09-03T02:12:45;99119.47;;;18.38;60.98
34177;BME280;20450;49.074;9.158;2022-09-03T02:15:17;99126.28;;;18.32;61.39
34177;BME280;20450;49.074;9.158;2022-09-03T02:17:50;99116.19;;;18.28;60.59
34177;BME280;20450;49.074;9.158;2022-09-03T02:20:26;99108.81;;;18.31;62.50
34177;BME280;20450;49.074;9.158;2022-09-03T02:22:56;99112.72;;;18.35;61.34
34177;BME280;20450;49.074;9.158;2022-09-03T02:25:29;99114.56;;;18.35;61.55
34177;BME280;20450;49.074;9.158;2022-09-03T02:28:03;99103.72;;;18.22;61.68
34177;BME280;20450;49.074;9.158;2022-09-03T02:30:43;99104.16;;;18.03;62.46
34177;BME280;20450;49.074;9.158;2022-09-03T02:33:12;99101.66;;;18.01;62.70
34177;BME280;20450;49.074;9.158;2022-09-03T02:35:40;99101.19;;;18.06;63.07
34177;BME280;20450;49.074;9.158;2022-09-03T02:38:09;99100.50;;;18.12;62.42
34177;BME280;20450;49.074;9.158;2022-09-03T02:40:38;99115.41;;;18.19;62.67
34177;BME280;20450;49.074;9.158;2022-09-03T02:43:10;99119.53;;;18.22;61.45
34177;BME280;20450;49.074;9.158;2022-09-03T02:45:45;99118.84;;;18.28;62.14
34177;BME280;20450;49.074;9.158;2022-09-03T02:48:19;99112.25;;;18.32;62.43
34177;BME280;20450;49.074;9.158;2022-09-03T02:50:49;99115.38;;;18.35;61.50
34177;BME280;20450;49.074;9.158;2022-09-03T02:53:16;99116.22;;;18.36;61.18
34177;BME280;20450;49.074;9.158;2022-09-03T02:55:44;99123.97;;;18.37;60.74
34177;BME280;20450;49.074;9.158;2022-09-03T02:58:11;99117.84;;;18.37;61.71
34177;BME280;20450;49.074;9.158;2022-09-03T03:00:39;99109.28;;;18.35;61.71
34177;BME280;20450;49.074;9.158;2022-09-03T03:03:06;99103.19;;;18.34;62.04
34177;BME280;20450;49.074;9.158;2022-09-03T03:05:42;99104.34;;;18.32;63.45
34177;BME280;20450;49.074;9.158;2022-09-03T03:08:11;99110.94;;;18.28;63.24
34177;BME280;20450;49.074;9.158;2022-09-03T03:10:39;99108.66;;;18.25;64.41
34177;BME280;20450;49.074;9.158;2022-09-03T03:13:07;99107.47;;;18.27;63.72
34177;BME280;20450;49.074;9.158;2022-09-03T03:15:33;99101.03;;;18.30;63.14
34177;BME280;20450;49.074;9.158;2022-09-03T03:18:00;99090.50;;;18.30;64.19
34177;BME280;20450;49.074;9.158;2022-09-03T03:20:27;99092.00;;;18.32;63.76
34177;BME280;20450;49.074;9.158;2022-09-03T03:22:56;99101.72;;;18.32;63.92
34177;BME280;20450;49.074;9.158;2022-09-03T03:25:23;99107.31;;;18.29;63.32
34177;BME280;20450;49.074;9.158;2022-09-03T03:27:49;99110.75;;;18.29;63.75
34177;BME280;20450;49.074;9.158;2022-09-03T03:30:17;99112.59;;;18.29;63.13
34177;BME280;20450;49.074;9.158;2022-09-03T03:32:44;99116.03;;;18.29;62.80
34177;BME280;20450;49.074;9.158;2022-09-03T03:35:11;99117.56;;;18.24;63.84
34177;BME280;20450;49.074;9.158;2022-09-03T03:37:38;99118.84;;;18.28;64.89
34177;BME280;20450;49.074;9.158;2022-09-03T03:40:08;99123.16;;;18.29;66.14
34177;BME280;20450;49.074;9.158;2022-09-03T03:42:36;99126.59;;;18.29;65.35
34177;BME280;20450;49.074;9.158;2022-09-03T03:45:04;99116.41;;;18.26;65.65
34177;BME280;20450;49.074;9.158;2022-09-03T03:47:32;99115.94;;;18.23;65.73
34177;BME280;20450;49.074;9.158;2022-09-03T03:49:59;99119.63;;;18.06;66.40
34177;BME280;20450;49.074;9.158;2022-09-03T03:52:27;99111.06;;;18.04;67.51
34177;BME280;20450;49.074;9.158;2022-09-03T03:54:54;99114.00;;;18.09;67.07
34177;BME280;20450;49.074;9.158;2022-09-03T03:57:22;99121.28;;;17.99;67.08
34177;BME280;20450;49.074;9.158;2022-09-03T03:59:50;99119.31;;;18.01;67.59
34177;BME280;20450;49.074;9.158;2022-09-03T04:02:17;99117.84;;;17.98;66.27
34177;BME280;20450;49.074;9.158;2022-09-03T04:04:44;99116.22;;;17.97;66.86
34177;BME280;20450;49.074;9.158;2022-09-03T04:07:11;99120.28;;;18.00;66.65
34177;BME280;20450;49.074;9.158;2022-09-03T04:09:38;99121.28;;;17.99;66.72
34177;BME280;20450;49.074;9.158;2022-09-03T04:12:05;99123.59;;;18.02;66.21
34177;BME280;20450;49.074;9.158;2022-09-03T04:14:34;99128.88;;;18.02;65.83
34177;BME280;20450;49.074;9.158;2022-09-03T04:17:03;99110.75;;;17.99;65.96
34177;BME280;20450;49.074;9.158;2022-09-03T04:19:30;99109.75;;;18.00;65.29
34177;BME280;20450;49.074;9.158;2022-09-03T04:21:57;99107.78;;;18.02;66.45
34177;BME280;20450;49.074;9.158;2022-09-03T04:24:24;99105.31;;;18.00;66.43
34177;BME280;20450;49.074;9.158;2022-09-03T04:26:51;99111.41;;;18.01;64.81
34177;BME280;20450;49.074;9.158;2022-09-03T04:29:18;99102.50;;;18.02;64.77
34177;BME280;20450;49.074;9.158;2022-09-03T04:31:47;99113.06;;;18.02;64.89
34177;BME280;20450;49.074;9.158;2022-09-03T04:34:14;99113.69;;;18.04;65.59
34177;BME280;20450;49.074;9.158;2022-09-03T04:36:41;99112.69;;;18.05;65.73
34177;BME280;20450;49.074;9.158;2022-09-03T04:39:08;99112.69;;;18.05;64.29
34177;BME280;20450;49.074;9.158;2022-09-03T04:41:35;99114.38;;;18.06;65.13
34177;BME280;20450;49.074;9.158;2022-09-03T04:44:02;99116.84;;;17.99;64.02
34177;BME280;20450;49.074;9.158;2022-09-03T04:46:29;99123.75;;;18.00;64.91
34177;BME280;20450;49.074;9.158;2022-09-03T04:48:57;99119.00;;;17.96;63.86
34177;BME280;20450;49.074;9.158;2022-09-03T04:51:26;99118.06;;;17.89;65.15
34177;BME280;20450;49.074;9.158;2022-09-03T04:53:56;99128.78;;;17.79;65.45
34177;BME280;20450;49.074;9.158;2022-09-03T04:56:26;99128.63;;;17.81;65.84
34177;BME280;20450;49.074;9.158;2022-09-03T04:58:55;99129.28;;;17.83;65.11
34177;BME280;20450;49.074;9.158;2022-09-03T05:01:26;99128.47;;;17.82;65.78
34177;BME280;20450;49.074;9.158;2022-09-03T05:03:55;99122.81;;;17.85;66.70
34177;BME280;20450;49.074;9.158;2022-09-03T05:06:24;99120.97;;;17.94;66.90
34177;BME280;20450;49.074;9.158;2022-09-03T05:08:53;99128.19;;;18.00;67.03
34177;BME280;20450;49.074;9.158;2022-09-03T05:11:21;99128.88;;;18.02;67.04
34177;BME280;20450;49.074;9.158;2022-09-03T05:13:50;99136.63;;;18.03;66.13
34177;BME280;20450;49.074;9.158;2022-09-03T05:16:21;99129.19;;;17.99;65.24
34177;BME280;20450;49.074;9.158;2022-09-03T05:18:51;99134.94;;;18.02;66.08
34177;BME280;20450;49.074;9.158;2022-09-03T05:21:18;99140.72;;;18.06;66.16
34177;BME280;20450;49.074;9.158;2022-09-03T05:23:49;99136.91;;;18.08;65.21
34177;BME280;20450;49.074;9.158;2022-09-03T05:26:19;99131.44;;;18.18;64.75
34177;BME280;20450;49.074;9.158;2022-09-03T05:28:47;99136.66;;;18.26;63.96
34177;BME280;20450;49.074;9.158;2022-09-03T05:31:16;99136.00;;;18.32;65.36
34177;BME280;20450;49.074;9.158;2022-09-03T05:33:46;99143.19;;;18.46;63.83
34177;BME280;20450;49.074;9.158;2022-09-03T05:36:15;99147.59;;;18.53;64.51
34177;BME280;20450;49.074;9.158;2022-09-03T05:38:45;99147.38;;;18.63;63.46
34177;BME280;20450;49.074;9.158;2022-09-03T05:41:15;99140.50;;;18.99;62.53
34177;BME280;20450;49.074;9.158;2022-09-03T05:43:46;99134.72;;;19.40;60.92
34177;BME280;20450;49.074;9.158;2022-09-03T05:46:14;99132.59;;;19.36;61.64
34177;BME280;20450;49.074;9.158;2022-09-03T05:48:41;99136.25;;;19.35;61.78
34177;BME280;20450;49.074;9.158;2022-09-03T05:51:10;99142.38;;;19.35;61.17
34177;BME280;20450;49.074;9.158;2022-09-03T05:53:39;99150.31;;;19.50;60.21
34177;BME280;20450;49.074;9.158;2022-09-03T05:56:07;99152.81;;;20.09;59.32
34177;BME280;20450;49.074;9.158;2022-09-03T05:58:38;99151.25;;;20.15;59.76
34177;BME280;20450;49.074;9.158;2022-09-03T06:01:10;99151.44;;;20.28;59.72
34177;BME280;20450;49.074;9.158;2022-09-03T06:03:38;99151.50;;;20.34;58.98
34177;BME280;20450;49.074;9.158;2022-09-03T06:06:06;99147.81;;;20.50;59.43
34177;BME280;20450;49.074;9.158;2022-09-03T06:08:34;99159.47;;;21.12;57.39
34177;BME280;20450;49.074;9.158;2022-09-03T06:11:04;99159.06;;;21.91;55.47
34177;BME280;20450;49.074;9.158;2022-09-03T06:13:32;99155.84;;;23.61;49.66
34177;BME280;20450;49.074;9.158;2022-09-03T06:16:03;99155.66;;;23.56;49.31
34177;BME280;20450;49.074;9.158;2022-09-03T06:18:32;99161.19;;;23.41;49.59
34177;BME280;20450;49.074;9.158;2022-09-03T06:21:00;99168.75;;;23.25;50.84
34177;BME280;20450;49.074;9.158;2022-09-03T06:23:29;99170.75;;;23.10;50.76
34177;BME280;20450;49.074;9.158;2022-09-03T06:26:02;99168.81;;;22.65;51.93
34177;BME280;20450;49.074;9.158;2022-09-03T06:28:32;99183.09;;;22.51;52.18
34177;BME280;20450;49.074;9.158;2022-09-03T06:31:02;99172.69;;;22.62;52.08
34177;BME280;20450;49.074;9.158;2022-09-03T06:33:31;99172.94;;;22.80;51.35
34177;BME280;20450;49.074;9.158;2022-09-03T06:36:01;99172.91;;;22.67;51.68
34177;BME280;20450;49.074;9.158;2022-09-03T06:38:35;99173.09;;;22.59;51.37
34177;BME280;20450;49.074;9.158;2022-09-03T06:41:05;99178.56;;;22.51;51.99
34177;BME280;20450;49.074;9.158;2022-09-03T06:43:35;99176.63;;;22.32;52.14
34177;BME280;20450;49.074;9.158;2022-09-03T06:46:06;99179.38;;;22.05;53.75
34177;BME280;20450;49.074;9.158;2022-09-03T06:48:35;99183.34;;;21.88;54.28
34177;BME280;20450;49.074;9.158;2022-09-03T06:51:05;99179.81;;;21.81;55.08
34177;BME280;20450;49.074;9.158;2022-09-03T06:53:35;99173.66;;;21.74;54.75
34177;BME280;20450;49.074;9.158;2022-09-03T06:56:05;99185.59;;;21.63;54.21
34177;BME280;20450;49.074;9.158;2022-09-03T06:58:35;99175.94;;;21.56;54.52
34177;BME280;20450;49.074;9.158;2022-09-03T07:01:06;99178.97;;;21.25;55.59
34177;BME280;20450;49.074;9.158;2022-09-03T07:03:35;99184.22;;;21.19;55.39
34177;BME280;20450;49.074;9.158;2022-09-03T07:06:05;99185.97;;;21.12;55.28
34177;BME280;20450;49.074;9.158;2022-09-03T07:08:34;99176.09;;;20.99;56.21
34177;BME280;20450;49.074;9.158;2022-09-03T07:11:03;99172.16;;;20.95;55.85
34177;BME280;20450;49.074;9.158;2022-09-03T07:13:31;99168.91;;;20.93;56.75
34177;BME280;20450;49.074;9.158;2022-09-03T07:15:59;99175.25;;;20.99;57.74
34177;BME280;20450;49.074;9.158;2022-09-03T07:18:28;99175.75;;;21.09;57.35
34177;BME280;20450;49.074;9.158;2022-09-03T07:20:57;99180.91;;;21.17;57.37
34177;BME280;20450;49.074;9.158;2022-09-03T07:23:24;99173.41;;;21.20;57.49
34177;BME280;20450;49.074;9.158;2022-09-03T07:25:53;99168.84;;;21.35;57.29
34177;BME280;20450;49.074;9.158;2022-09-03T07:28:21;99168.72;;;21.43;56.48
34177;BME280;20450;49.074;9.158;2022-09-03T07:30:48;99176.78;;;21.56;55.27
34177;BME280;20450;49.074;9.158;2022-09-03T07:33:15;99172.69;;;21.54;55.76
34177;BME280;20450;49.074;9.158;2022-09-03T07:35:43;99174.06;;;21.50;56.13
34177;BME280;20450;49.074;9.158;2022-09-03T07:38:15;99182.19;;;21.42;55.73
34177;BME280;20450;49.074;9.158;2022-09-03T07:40:43;99174.22;;;21.42;57.68
34177;BME280;20450;49.074;9.158;2022-09-03T07:43:10;99181.34;;;21.20;58.08
34177;BME280;20450;49.074;9.158;2022-09-03T07:45:37;99187.63;;;21.13;58.48
34177;BME280;20450;49.074;9.158;2022-09-03T07:48:04;99181.56;;;21.19;59.55
34177;BME280;20450;49.074;9.158;2022-09-03T07:50:31;99188.31;;;21.21;59.61
34177;BME280;20450;49.074;9.158;2022-09-03T07:53:00;99197.59;;;21.32;59.25
34177;BME280;20450;49.074;9.158;2022-09-03T07:55:26;99202.75;;;21.40;60.27
34177;BME280;20450;49.074;9.158;2022-09-03T07:57:57;99200.66;;;21.56;60.52
34177;BME280;20450;49.074;9.158;2022-09-03T08:00:24;99205.47;;;21.67;59.84
34177;BME280;20450;49.074;9.158;2022-09-03T08:02:56;99210.66;;;21.61;60.23
34177;BME280;20450;49.074;9.158;2022-09-03T08:05:24;99213.84;;;21.71;60.00
34177;BME280;20450;49.074;9.158;2022-09-03T08:07:50;99214.78;;;21.91;58.97
34177;BME280;20450;49.074;9.158;2022-09-03T08:10:19;99213.94;;;22.18;58.69
34177;BME280;20450;49.074;9.158;2022-09-03T08:12:46;99211.16;;;22.32;57.92
34177;BME280;20450;49.074;9.158;2022-09-03T08:15:19;99225.81;;;22.56;57.64
34177;BME280;20450;49.074;9.158;2022-09-03T08:17:46;99230.09;;;23.17;54.84
34177;BME280;20450;49.074;9.158;2022-09-03T08:20:13;99227.69;;;24.70;51.29
34177;BME280;20450;49.074;9.158;2022-09-03T08:22:40;99213.19;;;24.97;49.46
34177;BME280;20450;49.074;9.158;2022-09-03T08:25:07;99219.22;;;24.22;51.01
34177;BME280;20450;49.074;9.158;2022-09-03T08:27:40;99215.84;;;24.53;49.73
34177;BME280;20450;49.074;9.158;2022-09-03T08:30:08;99224.72;;;24.34;49.03
34177;BME280;20450;49.074;9.158;2022-09-03T08:32:36;99217.84;;;23.94;50.19
34177;BME280;20450;49.074;9.158;2022-09-03T08:35:04;99224.00;;;23.75;51.00
34177;BME280;20450;49.074;9.158;2022-09-03T08:37:32;99225.44;;;23.71;51.47
34177;BME280;20450;49.074;9.158;2022-09-03T08:39:59;99231.16;;;23.55;51.48
34177;BME280;20450;49.074;9.158;2022-09-03T08:42:32;99224.22;;;23.41;52.06
34177;BME280;20450;49.074;9.158;2022-09-03T08:45:19;99226.84;;;23.28;52.21
34177;BME280;20450;49.074;9.158;2022-09-03T08:47:49;99236.84;;;23.26;53.04
34177;BME280;20450;49.074;9.158;2022-09-03T08:50:27;99229.25;;;22.56;54.61
34177;BME280;20450;49.074;9.158;2022-09-03T08:53:02;99226.66;;;22.63;54.43
34177;BME280;20450;49.074;9.158;2022-09-03T08:55:35;99229.53;;;22.74;54.32
34177;BME280;20450;49.074;9.158;2022-09-03T08:58:11;99230.59;;;22.80;53.97
34177;BME280;20450;49.074;9.158;2022-09-03T09:00:47;99238.16;;;22.83;53.61
34177;BME280;20450;49.074;9.158;2022-09-03T09:03:35;99238.78;;;22.85;54.12
34177;BME280;20450;49.074;9.158;2022-09-03T09:06:18;99237.56;;;22.87;54.58
34177;BME280;20450;49.074;9.158;2022-09-03T09:09:04;99240.41;;;22.86;54.13
34177;BME280;20450;49.074;9.158;2022-09-03T09:11:52;99247.38;;;22.87;53.63
34177;BME280;20450;49.074;9.158;2022-09-03T09:14:35;99251.44;;;22.83;54.13
34177;BME280;20450;49.074;9.158;2022-09-03T09:17:22;99254.53;;;22.93;54.30
34177;BME280;20450;49.074;9.158;2022-09-03T09:20:05;99250.84;;;22.87;54.56
34177;BME280;20450;49.074;9.158;2022-09-03T09:22:43;99258.44;;;22.97;54.34
34177;BME280;20450;49.074;9.158;2022-09-03T09:25:17;99251.06;;;22.99;54.40
34177;BME280;20450;49.074;9.158;2022-09-03T09:27:48;99247.41;;;23.06;54.85
34177;BME280;20450;49.074;9.158;2022-09-03T09:30:20;99257.25;;;23.12;53.80
34177;BME280;20450;49.074;9.158;2022-09-03T09:32:47;99258.09;;;23.13;53.58
34177;BME280;20450;49.074;9.158;2022-09-03T09:35:16;99250.72;;;23.15;54.66
34177;BME280;20450;49.074;9.158;2022-09-03T09:37:49;99252.59;;;23.21;54.79
34177;BME280;20450;49.074;9.158;2022-09-03T09:40:27;99246.53;;;22.80;55.01
34177;BME280;20450;49.074;9.158;2022-09-03T09:43:07;99234.63;;;21.67;57.37
34177;BME280;20450;49.074;9.158;2022-09-03T09:45:39;99235.91;;;21.57;58.09
34177;BME280;20450;49.074;9.158;2022-09-03T09:48:12;99233.34;;;21.91;58.83
34177;BME280;20450;49.074;9.158;2022-09-03T09:50:43;99230.34;;;22.28;59.12
34177;BME280;20450;49.074;9.158;2022-09-03T09:53:11;99235.81;;;22.60;58.89
34177;BME280;20450;49.074;9.158;2022-09-03T09:55:57;99234.06;;;22.87;58.61
34177;BME280;20450;49.074;9.158;2022-09-03T09:58:25;99236.41;;;23.09;59.00
34177;BME280;20450;49.074;9.158;2022-09-03T10:01:00;99236.44;;;23.22;59.23
34177;BME280;20450;49.074;9.158;2022-09-03T10:03:32;99217.53;;;22.85;58.12
34177;BME280;20450;49.074;9.158;2022-09-03T10:06:05;99217.84;;;22.56;57.84
34177;BME280;20450;49.074;9.158;2022-09-03T10:08:34;99217.50;;;22.78;57.93
34177;BME280;20450;49.074;9.158;2022-09-03T10:11:01;99218.38;;;22.98;56.42
34177;BME280;20450;49.074;9.158;2022-09-03T10:13:37;99227.81;;;23.14;57.27
34177;BME280;20450;49.074;9.158;2022-09-03T10:16:19;99230.53;;;23.79;55.75
34177;BME280;20450;49.074;9.158;2022-09-03T10:18:55;99227.50;;;25.89;50.17
34177;BME280;20450;49.074;9.158;2022-09-03T10:21:33;99228.00;;;27.23;46.69
34177;BME280;20450;49.074;9.158;2022-09-03T10:24:18;99233.41;;;27.35;46.75
34177;BME280;20450;49.074;9.158;2022-09-03T10:26:58;99223.84;;;28.03;44.57
34177;BME280;20450;49.074;9.158;2022-09-03T10:29:25;99227.28;;;27.57;45.15
34177;BME280;20450;49.074;9.158;2022-09-03T10:32:01;99220.50;;;27.14;46.24
34177;BME280;20450;49.074;9.158;2022-09-03T10:34:47;99221.94;;;26.33;49.71
34177;BME280;20450;49.074;9.158;2022-09-03T10:37:25;99217.25;;;27.12;47.60
34177;BME280;20450;49.074;9.158;2022-09-03T10:40:10;99219.75;;;27.89;46.14
34177;BME280;20450;49.074;9.158;2022-09-03T10:42:49;99216.66;;;28.66;45.49
34177;BME280;20450;49.074;9.158;2022-09-03T10:45:37;99221.59;;;29.91;42.32
34177;BME280;20450;49.074;9.158;2022-09-03T10:51:35;99218.59;;;28.82;44.44
34177;BME280;20450;49.074;9.158;2022-09-03T10:54:31;99216.84;;;30.14;42.73
34177;BME280;20450;49.074;9.158;2022-09-03T10:57:26;99220.19;;;31.07;40.12
34177;BME280;20450;49.074;9.158;2022-09-03T11:00:05;99204.75;;;30.12;41.89
34177;BME280;20450;49.074;9.158;2022-09-03T11:03:03;99198.81;;;30.53;41.04
34177;BME280;20450;49.074;9.158;2022-09-03T11:05:57;99203.69;;;29.47;43.63
34177;BME280;20450;49.074;9.158;2022-09-03T11:08:32;99205.44;;;30.07;42.80
34177;BME280;20450;49.074;9.158;2022-09-03T11:11:11;99204.94;;;30.48;41.14
34177;BME280;20450;49.074;9.158;2022-09-03T11:13:50;99198.41;;;31.09;39.92
34177;BME280;20450;49.074;9.158;2022-09-03T11:16:25;99197.19;;;31.53;38.91
34177;BME280;20450;49.074;9.158;2022-09-03T11:19:01;99192.09;;;31.20;39.29
34177;BME280;20450;49.074;9.158;2022-09-03T11:21:35;99188.53;;;30.93;40.00
34177;BME280;20450;49.074;9.158;2022-09-03T11:24:10;99175.63;;;29.71;42.35
34177;BME280;20450;49.074;9.158;2022-09-03T11:26:42;99171.22;;;30.19;42.16
34177;BME280;20450;49.074;9.158;2022-09-03T11:29:19;99179.25;;;30.36;41.45
34177;BME280;20450;49.074;9.158;2022-09-03T11:32:00;99166.19;;;29.35;43.06
34177;BME280;20450;49.074;9.158;2022-09-03T11:34:31;99165.19;;;28.69;44.00
34177;BME280;20450;49.074;9.158;2022-09-03T11:37:20;99166.69;;;28.48;44.80
34177;BME280;20450;49.074;9.158;2022-09-03T11:39:55;99160.03;;;29.23;43.41
34177;BME280;20450;49.074;9.158;2022-09-03T11:42:29;99168.28;;;28.89;43.59
34177;BME280;20450;49.074;9.158;2022-09-03T11:45:11;99165.41;;;29.23;43.42
34177;BME280;20450;49.074;9.158;2022-09-03T11:47:46;99167.03;;;29.08;43.70
34177;BME280;20450;49.074;9.158;2022-09-03T11:50:20;99162.06;;;28.72;44.72
34177;BME280;20450;49.074;9.158;2022-09-03T11:53:05;99167.53;;;28.26;44.38
34177;BME280;20450;49.074;9.158;2022-09-03T11:55:50;99167.53;;;26.27;48.49
34177;BME280;20450;49.074;9.158;2022-09-03T11:58:23;99167.69;;;26.68;48.67
34177;BME280;20450;49.074;9.158;2022-09-03T12:00:54;99166.34;;;26.41;49.04
34177;BME280;20450;49.074;9.158;2022-09-03T12:03:26;99169.16;;;26.10;49.43
34177;BME280;20450;49.074;9.158;2022-09-03T12:06:21;99167.69;;;26.32;49.68
34177;BME280;20450;49.074;9.158;2022-09-03T12:12:47;99162.78;;;26.65;48.17
34177;BME280;20450;49.074;9.158;2022-09-03T12:15:48;99173.38;;;26.72;49.04
34177;BME280;20450;49.074;9.158;2022-09-03T12:18:33;99172.19;;;26.68;49.04
34177;BME280;20450;49.074;9.158;2022-09-03T12:21:05;99173.25;;;26.67;48.67
34177;BME280;20450;49.074;9.158;2022-09-03T12:23:38;99173.41;;;26.54;48.52
34177;BME280;20450;49.074;9.158;2022-09-03T12:26:11;99162.13;;;26.34;48.81
34177;BME280;20450;49.074;9.158;2022-09-03T12:28:41;99169.16;;;26.10;49.59
34177;BME280;20450;49.074;9.158;2022-09-03T12:31:15;99174.44;;;25.99;49.68
34177;BME280;20450;49.074;9.158;2022-09-03T12:33:44;99170.59;;;25.95;50.86
34177;BME280;20450;49.074;9.158;2022-09-03T12:36:13;99174.50;;;25.92;51.51
34177;BME280;20450;49.074;9.158;2022-09-03T12:38:40;99175.16;;;25.88;51.43
34177;BME280;20450;49.074;9.158;2022-09-03T12:41:29;99176.91;;;25.76;52.52
34177;BME280;20450;49.074;9.158;2022-09-03T12:43:58;99178.47;;;25.41;53.15
34177;BME280;20450;49.074;9.158;2022-09-03T12:46:27;99180.41;;;25.27;53.02
34177;BME280;20450;49.074;9.158;2022-09-03T12:49:01;99185.28;;;24.99;53.69
34177;BME280;20450;49.074;9.158;2022-09-03T12:51:50;99183.41;;;24.75;53.65
34177;BME280;20450;49.074;9.158;2022-09-03T12:54:31;99182.53;;;24.31;55.64
34177;BME280;20450;49.074;9.158;2022-09-03T12:57:01;99181.81;;;23.98;55.38
34177;BME280;20450;49.074;9.158;2022-09-03T12:59:32;99184.44;;;24.17;55.33
34177;BME280;20450;49.074;9.158;2022-09-03T13:02:09;99177.66;;;24.21;55.40
34177;BME280;20450;49.074;9.158;2022-09-03T13:04:43;99178.88;;;24.25;55.89
34177;BME280;20450;49.074;9.158;2022-09-03T13:07:13;99183.16;;;24.26;55.99
34177;BME280;20450;49.074;9.158;2022-09-03T13:09:49;99185.16;;;24.44;55.02
34177;BME280;20450;49.074;9.158;2022-09-03T13:12:23;99193.47;;;23.84;56.91
34177;BME280;20450;49.074;9.158;2022-09-03T13:14:57;99187.53;;;24.01;56.25
34177;BME280;20450;49.074;9.158;2022-09-03T13:17:44;99189.38;;;24.01;56.10
34177;BME280;20450;49.074;9.158;2022-09-03T13:20:30;99180.00;;;23.92;56.63
34177;BME280;20450;49.074;9.158;2022-09-03T13:23:11;99173.84;;;23.98;56.73
34177;BME280;20450;49.074;9.158;2022-09-03T13:25:57;99183.66;;;23.97;56.43
34177;BME280;20450;49.074;9.158;2022-09-03T13:28:47;99189.78;;;24.11;57.45
34177;BME280;20450;49.074;9.158;2022-09-03T13:31:29;99197.34;;;23.16;63.77
34177;BME280;20450;49.074;9.158;2022-09-03T13:34:04;99192.28;;;23.21;65.17
34177;BME280;20450;49.074;9.158;2022-09-03T13:36:41;99197.78;;;22.47;67.71
34177;BME280;20450;49.074;9.158;2022-09-03T13:39:22;99189.41;;;22.50;68.39
34177;BME280;20450;49.074;9.158;2022-09-03T13:41:57;99194.97;;;22.61;68.06
34177;BME280;20450;49.074;9.158;2022-09-03T13:44:40;99192.13;;;22.63;69.16
34177;BME280;20450;49.074;9.158;2022-09-03T13:47:21;99192.38;;;22.34;70.83
34177;BME280;20450;49.074;9.158;2022-09-03T13:50:02;99180.91;;;22.27;72.14